Time;durP1;ratioP1;P1;durP2;ratioP2;P2;SDS_P1;SDS_P2;PMS_P1;PMS_P2;Temp;Humidity;BMP_temperature;BMP_pressure;BME280_temperature;BME280_humidity;BME280_pressure;Samples;Min_cycle;Max_cycle;Signal;HPM_P1;HPM_P2
2023/12/10 00:02:16;;;;;;;0.50;0.50;;;13.20;72.10;;;;;;5048231;28;20057;-72
2023/12/10 00:04:43;;;;;;;0.40;0.40;;;13.20;72.20;;;;;;5029848;28;20021;-72
2023/12/10 00:07:08;;;;;;;0.40;0.40;;;13.20;72.20;;;;;;5043035;28;20021;-72
2023/12/10 00:09:34;;;;;;;0.40;0.40;;;13.20;72.30;;;;;;5042096;28;20094;-72
2023/12/10 00:11:59;;;;;;;0.50;0.50;;;13.20;72.30;;;;;;5037747;28;20029;-70
2023/12/10 00:14:25;;;;;;;0.50;0.50;;;13.20;72.20;;;;;;5030193;28;20112;-70
2023/12/10 00:16:51;;;;;;;0.47;0.47;;;13.20;72.20;;;;;;5025730;28;20080;-69
2023/12/10 00:19:16;;;;;;;0.60;0.60;;;13.20;72.20;;;;;;5031137;28;20029;-68
2023/12/10 00:21:42;;;;;;;0.40;0.40;;;13.20;72.20;;;;;;5030361;28;20388;-68
2023/12/10 00:24:08;;;;;;;0.40;0.40;;;13.10;72.10;;;;;;5029012;28;20120;-69
2023/12/10 00:26:33;;;;;;;0.43;0.43;;;13.20;72.20;;;;;;5030152;28;20048;-69
2023/12/10 00:28:59;;;;;;;0.57;0.57;;;13.20;72.10;;;;;;5030956;28;20536;-69
2023/12/10 00:31:24;;;;;;;0.40;0.40;;;13.20;72.10;;;;;;5029760;28;20392;-69
2023/12/10 00:33:50;;;;;;;2.55;1.05;;;13.20;72.10;;;;;;5031027;28;20214;-69
2023/12/10 00:36:15;;;;;;;0.40;0.40;;;13.20;72.10;;;;;;5029439;28;20112;-69
2023/12/10 00:38:42;;;;;;;0.40;0.40;;;13.20;72.10;;;;;;5030798;28;20041;-70
2023/12/10 00:41:11;;;;;;;0.45;0.45;;;13.10;72.00;;;;;;5012346;28;20056;-69
2023/12/10 00:43:40;;;;;;;0.50;0.50;;;13.10;71.90;;;;;;5024788;28;20443;-69
2023/12/10 00:46:06;;;;;;;0.40;0.40;;;13.00;72.10;;;;;;5029779;28;20081;-69
2023/12/10 00:48:33;;;;;;;0.55;0.55;;;13.00;72.10;;;;;;5027774;28;20036;-70
2023/12/10 00:50:59;;;;;;;0.43;0.43;;;13.00;72.10;;;;;;5030475;28;20029;-71
2023/12/10 00:53:25;;;;;;;0.38;0.38;;;13.00;72.10;;;;;;5027768;28;20041;-70
2023/12/10 00:55:51;;;;;;;0.50;0.50;;;12.90;72.10;;;;;;5029318;28;20037;-69
2023/12/10 00:58:17;;;;;;;0.50;0.50;;;12.90;72.20;;;;;;5025941;28;20104;-69
2023/12/10 01:00:42;;;;;;;0.65;0.65;;;12.90;72.10;;;;;;5018313;28;20026;-68
2023/12/10 01:03:08;;;;;;;0.65;0.65;;;12.80;72.10;;;;;;5013133;28;20188;-69
2023/12/10 01:05:34;;;;;;;0.85;0.75;;;12.80;72.10;;;;;;5028554;28;20022;-69
2023/12/10 01:07:59;;;;;;;0.55;0.55;;;12.80;72.10;;;;;;5033533;28;20460;-69
2023/12/10 01:10:25;;;;;;;0.40;0.40;;;12.80;72.20;;;;;;5032974;28;20025;-69
2023/12/10 01:12:50;;;;;;;0.50;0.50;;;12.70;72.10;;;;;;5029027;28;20032;-69
2023/12/10 01:15:17;;;;;;;0.43;0.43;;;12.80;72.20;;;;;;5028161;28;20820;-69
2023/12/10 01:17:43;;;;;;;0.52;0.52;;;12.80;72.00;;;;;;5026569;28;20025;-69
2023/12/10 01:20:09;;;;;;;0.50;0.50;;;12.70;71.90;;;;;;5029264;28;20104;-69
2023/12/10 01:22:34;;;;;;;0.60;0.60;;;12.70;71.70;;;;;;5028495;28;20092;-69
2023/12/10 01:25:01;;;;;;;1.75;1.20;;;12.70;71.70;;;;;;5026612;28;20049;-70
2023/12/10 01:27:26;;;;;;;1.08;1.08;;;12.60;71.70;;;;;;5031591;28;20025;-69
2023/12/10 01:29:52;;;;;;;0.50;0.50;;;12.60;71.60;;;;;;5032949;28;20037;-70
2023/12/10 01:32:18;;;;;;;0.80;0.80;;;12.50;71.40;;;;;;5031614;28;20048;-69
2023/12/10 01:34:44;;;;;;;0.40;0.40;;;12.40;71.40;;;;;;5015781;28;20092;-69
2023/12/10 01:37:09;;;;;;;0.65;0.65;;;12.40;71.50;;;;;;5013974;28;20125;-69
2023/12/10 01:39:35;;;;;;;0.40;0.40;;;12.30;71.60;;;;;;5022684;28;20028;-70
2023/12/10 01:42:01;;;;;;;0.50;0.50;;;12.40;71.90;;;;;;5033560;28;20064;-70
2023/12/10 01:44:26;;;;;;;0.60;0.60;;;12.40;72.00;;;;;;5016024;28;20037;-71
2023/12/10 01:46:54;;;;;;;0.80;0.80;;;12.50;72.20;;;;;;5033857;28;20056;-70
2023/12/10 01:49:21;;;;;;;1.13;1.13;;;12.50;72.10;;;;;;5015605;28;20480;-69
2023/12/10 01:51:48;;;;;;;1.08;1.08;;;12.60;72.10;;;;;;5028637;28;20144;-70
2023/12/10 01:54:25;;;;;;;0.73;0.73;;;12.60;72.10;;;;;;5026702;28;20038;-69
2023/12/10 01:56:50;;;;;;;0.50;0.50;;;12.60;72.10;;;;;;5032381;28;20056;-69
2023/12/10 01:59:18;;;;;;;0.50;0.50;;;12.60;72.00;;;;;;5014087;28;20068;-69
2023/12/10 02:01:46;;;;;;;0.40;0.40;;;12.70;72.00;;;;;;5013509;28;20100;-70
2023/12/10 02:04:12;;;;;;;0.40;0.40;;;12.70;71.80;;;;;;5013908;28;20048;-71
2023/12/10 02:06:38;;;;;;;0.68;0.68;;;12.70;71.50;;;;;;5013889;28;20026;-69
2023/12/10 02:09:10;;;;;;;0.50;0.50;;;12.70;71.40;;;;;;5021360;28;20455;-69
2023/12/10 02:11:36;;;;;;;0.50;0.50;;;12.60;71.00;;;;;;5033284;28;20031;-69
2023/12/10 02:14:03;;;;;;;0.50;0.50;;;12.50;70.90;;;;;;5031408;28;20045;-69
2023/12/10 02:16:28;;;;;;;0.50;0.50;;;12.50;70.80;;;;;;5020143;28;20041;-69
2023/12/10 02:18:54;;;;;;;0.85;0.85;;;12.50;71.10;;;;;;5023405;28;20120;-69
2023/12/10 02:21:19;;;;;;;0.60;0.60;;;12.50;71.40;;;;;;4995774;28;20381;-69
2023/12/10 02:23:59;;;;;;;1.02;1.02;;;12.50;71.60;;;;;;5030174;28;20045;-69
2023/12/10 02:26:25;;;;;;;0.73;0.73;;;12.50;71.60;;;;;;5033098;28;20484;-69
2023/12/10 02:28:51;;;;;;;0.50;0.50;;;12.50;71.40;;;;;;5020502;28;20092;-69
2023/12/10 02:31:18;;;;;;;0.82;0.82;;;12.60;71.40;;;;;;5032431;28;20040;-69
2023/12/10 02:33:44;;;;;;;0.60;0.60;;;12.60;71.60;;;;;;5020894;28;20113;-69
2023/12/10 02:36:09;;;;;;;2.53;1.48;;;12.60;71.60;;;;;;5015130;28;20544;-69
2023/12/10 02:38:35;;;;;;;1.35;1.15;;;12.60;71.50;;;;;;5032733;28;20108;-70
2023/12/10 02:41:00;;;;;;;0.50;0.50;;;12.70;71.60;;;;;;5032590;28;20377;-69
2023/12/10 02:43:26;;;;;;;0.60;0.60;;;12.70;71.70;;;;;;5032603;28;20037;-69
2023/12/10 02:45:51;;;;;;;0.50;0.50;;;12.80;71.70;;;;;;5032921;28;20384;-70
2023/12/10 02:48:21;;;;;;;0.40;0.40;;;12.80;71.80;;;;;;5032752;28;20048;-69
2023/12/10 02:50:50;;;;;;;0.67;0.63;;;12.80;71.60;;;;;;5032750;28;20056;-69
2023/12/10 02:53:16;;;;;;;0.60;0.60;;;12.80;71.40;;;;;;5014483;28;20903;-70
2023/12/10 02:55:41;;;;;;;0.65;0.65;;;12.80;71.20;;;;;;5031810;28;20064;-69
2023/12/10 02:58:07;;;;;;;0.50;0.50;;;12.70;71.20;;;;;;5021016;28;20485;-69
2023/12/10 03:00:32;;;;;;;0.40;0.40;;;12.70;71.40;;;;;;5032470;28;20028;-69
2023/12/10 03:02:58;;;;;;;0.50;0.50;;;12.70;71.50;;;;;;5020921;28;20058;-69
2023/12/10 03:05:25;;;;;;;0.85;0.85;;;12.60;71.50;;;;;;5012826;28;20041;-69
2023/12/10 03:07:50;;;;;;;11.45;1.10;;;12.70;71.40;;;;;;5012715;28;20033;-70
2023/12/10 03:10:16;;;;;;;0.80;0.80;;;12.60;71.60;;;;;;5012648;28;20037;-69
2023/12/10 03:12:41;;;;;;;0.70;0.70;;;12.60;71.60;;;;;;5016428;28;20116;-70
2023/12/10 03:15:07;;;;;;;0.40;0.40;;;12.50;71.70;;;;;;5031218;28;20033;-70
2023/12/10 03:17:32;;;;;;;0.75;0.75;;;12.60;71.80;;;;;;5023104;28;20024;-69
2023/12/10 03:19:58;;;;;;;0.52;0.52;;;12.50;71.80;;;;;;5032436;28;20080;-72
2023/12/10 03:22:23;;;;;;;0.50;0.50;;;12.50;71.80;;;;;;5032285;28;20029;-70
2023/12/10 03:24:49;;;;;;;0.50;0.50;;;12.60;71.80;;;;;;5031941;28;20500;-69
2023/12/10 03:27:14;;;;;;;1.55;1.45;;;12.50;71.70;;;;;;5031736;28;20060;-70
2023/12/10 03:29:40;;;;;;;0.43;0.43;;;12.60;71.70;;;;;;5032216;28;20465;-70
2023/12/10 03:32:06;;;;;;;0.55;0.55;;;12.50;71.90;;;;;;5031591;28;20037;-71
2023/12/10 03:34:31;;;;;;;0.70;0.70;;;12.50;71.80;;;;;;5031632;28;20116;-71
2023/12/10 03:36:56;;;;;;;0.50;0.50;;;12.50;71.80;;;;;;5031873;28;20438;-70
2023/12/10 03:39:22;;;;;;;0.50;0.50;;;12.50;71.90;;;;;;5021436;28;20117;-69
2023/12/10 03:41:49;;;;;;;0.70;0.70;;;12.50;71.80;;;;;;5011619;28;20347;-70
2023/12/10 03:44:14;;;;;;;0.40;0.40;;;12.60;71.70;;;;;;4994250;28;20029;-69
2023/12/10 03:46:40;;;;;;;0.60;0.60;;;12.50;71.80;;;;;;5011985;28;20037;-69
2023/12/10 03:49:05;;;;;;;0.50;0.50;;;12.60;71.70;;;;;;5011899;28;20034;-69
2023/12/10 03:51:31;;;;;;;0.40;0.40;;;12.60;71.80;;;;;;5030493;28;20033;-70
2023/12/10 03:53:56;;;;;;;0.50;0.50;;;12.60;71.80;;;;;;5017130;28;20038;-69
2023/12/10 03:56:22;;;;;;;0.40;0.40;;;12.60;71.60;;;;;;5030503;28;20026;-69
2023/12/10 03:58:47;;;;;;;0.85;0.85;;;12.70;71.70;;;;;;5030634;28;20071;-69
2023/12/10 04:01:13;;;;;;;0.50;0.50;;;12.60;71.60;;;;;;5022660;28;20029;-70
2023/12/10 04:03:38;;;;;;;0.43;0.43;;;12.60;71.60;;;;;;5011511;28;20384;-70
2023/12/10 04:06:04;;;;;;;0.40;0.40;;;12.50;71.50;;;;;;5011824;28;20029;-70
2023/12/10 04:08:29;;;;;;;0.50;0.50;;;12.50;71.50;;;;;;5011441;28;20034;-71
2023/12/10 04:10:55;;;;;;;0.40;0.40;;;12.50;71.50;;;;;;5011452;28;20033;-70
2023/12/10 04:13:20;;;;;;;0.40;0.40;;;12.50;71.60;;;;;;5003353;28;20499;-73
2023/12/10 04:15:46;;;;;;;0.60;0.60;;;12.50;71.50;;;;;;5005263;28;20028;-73
2023/12/10 04:18:14;;;;;;;0.50;0.50;;;12.40;71.70;;;;;;5037038;28;20037;-73
2023/12/10 04:20:41;;;;;;;0.50;0.50;;;12.40;71.50;;;;;;5042837;28;20021;-73
2023/12/10 04:23:07;;;;;;;0.60;0.60;;;12.30;71.70;;;;;;5052399;28;20083;-73
2023/12/10 04:25:32;;;;;;;1.30;1.23;;;12.30;71.90;;;;;;5055815;28;20034;-73
2023/12/10 04:27:58;;;;;;;0.70;0.70;;;12.30;71.90;;;;;;5054132;28;20036;-73
2023/12/10 04:30:24;;;;;;;0.55;0.55;;;12.30;71.80;;;;;;5054461;28;20037;-73
2023/12/10 04:32:50;;;;;;;0.50;0.50;;;12.30;71.60;;;;;;5055178;28;20048;-74
2023/12/10 04:35:15;;;;;;;0.85;0.85;;;12.20;71.90;;;;;;5055292;28;20017;-73
2023/12/10 04:37:41;;;;;;;0.60;0.60;;;12.20;71.60;;;;;;5056339;28;20026;-73
2023/12/10 04:40:07;;;;;;;0.50;0.50;;;12.20;71.60;;;;;;5058966;28;20013;-73
2023/12/10 04:42:33;;;;;;;0.40;0.40;;;12.10;71.90;;;;;;5054330;28;20036;-73
2023/12/10 04:44:58;;;;;;;0.40;0.40;;;12.10;71.90;;;;;;5059643;28;20025;-73
2023/12/10 04:47:24;;;;;;;0.50;0.50;;;12.10;71.70;;;;;;5059523;28;20052;-73
2023/12/10 04:49:49;;;;;;;0.47;0.47;;;12.10;71.70;;;;;;5058947;28;20042;-73
2023/12/10 04:52:15;;;;;;;0.63;0.63;;;12.00;71.80;;;;;;5041495;28;20025;-73
2023/12/10 04:54:40;;;;;;;0.77;0.77;;;12.00;71.90;;;;;;5059850;28;20085;-73
2023/12/10 04:57:06;;;;;;;0.40;0.40;;;12.00;71.70;;;;;;5058575;28;20051;-73
2023/12/10 04:59:31;;;;;;;0.50;0.50;;;11.90;71.90;;;;;;5059123;28;20018;-73
2023/12/10 05:01:57;;;;;;;0.50;0.50;;;12.00;71.90;;;;;;5059071;28;20043;-73
2023/12/10 05:04:22;;;;;;;0.50;0.50;;;12.00;71.80;;;;;;5058007;28;20036;-71
2023/12/10 05:06:48;;;;;;;0.40;0.40;;;11.90;71.80;;;;;;5059075;28;20048;-72
2023/12/10 05:09:13;;;;;;;0.65;0.65;;;11.90;71.90;;;;;;5057518;28;20037;-72
2023/12/10 05:11:39;;;;;;;0.40;0.40;;;11.90;72.00;;;;;;5050424;28;20017;-72
2023/12/10 05:14:05;;;;;;;0.45;0.45;;;11.90;71.90;;;;;;5057368;28;20041;-72
2023/12/10 05:16:31;;;;;;;0.50;0.50;;;11.80;72.00;;;;;;5035518;28;20029;-72
2023/12/10 05:18:56;;;;;;;2.65;1.40;;;11.80;72.10;;;;;;5053813;28;20057;-72
2023/12/10 05:21:22;;;;;;;0.40;0.40;;;11.80;71.80;;;;;;5050880;28;20041;-69
2023/12/10 05:23:47;;;;;;;0.70;0.70;;;11.80;72.00;;;;;;5033476;28;20025;-70
2023/12/10 05:26:13;;;;;;;0.40;0.40;;;11.80;71.80;;;;;;5027467;28;20393;-69
2023/12/10 05:28:39;;;;;;;0.40;0.40;;;11.80;71.80;;;;;;5033409;28;20428;-68
2023/12/10 05:31:05;;;;;;;0.70;0.70;;;11.80;71.90;;;;;;5033465;28;20388;-68
2023/12/10 05:33:31;;;;;;;0.40;0.40;;;11.80;72.00;;;;;;5033857;28;20041;-69
2023/12/10 05:35:58;;;;;;;0.50;0.50;;;11.70;71.90;;;;;;5034218;28;20045;-69
2023/12/10 05:38:23;;;;;;;0.55;0.55;;;11.70;71.90;;;;;;5025972;28;20022;-68
2023/12/10 05:40:48;;;;;;;0.77;0.77;;;11.70;71.80;;;;;;4996256;28;20026;-69
2023/12/10 05:43:15;;;;;;;0.50;0.50;;;11.70;71.90;;;;;;5031092;28;20050;-68
2023/12/10 05:45:40;;;;;;;0.50;0.50;;;11.70;71.90;;;;;;5030541;28;20018;-68
2023/12/10 05:48:06;;;;;;;0.50;0.50;;;11.70;72.10;;;;;;5031788;28;20060;-69
2023/12/10 05:50:31;;;;;;;0.65;0.65;;;11.70;72.00;;;;;;5025230;28;20388;-69
2023/12/10 05:52:57;;;;;;;0.50;0.50;;;11.70;72.00;;;;;;5033495;28;20354;-69
2023/12/10 05:55:22;;;;;;;0.40;0.40;;;11.70;72.00;;;;;;5023183;28;20492;-68
2023/12/10 05:57:48;;;;;;;0.40;0.40;;;11.70;72.00;;;;;;5030375;28;20524;-68
2023/12/10 06:00:13;;;;;;;0.50;0.50;;;11.70;72.10;;;;;;5032466;28;20424;-68
2023/12/10 06:02:39;;;;;;;0.50;0.50;;;11.70;71.90;;;;;;5029680;28;20037;-70
2023/12/10 06:05:05;;;;;;;0.85;0.85;;;11.70;71.90;;;;;;5030130;28;20038;-70
2023/12/10 06:07:30;;;;;;;2.28;1.27;;;11.60;72.00;;;;;;5027776;28;20040;-70
2023/12/10 06:09:56;;;;;;;1.85;1.15;;;11.60;71.90;;;;;;5032700;28;20452;-71
2023/12/10 06:12:21;;;;;;;0.60;0.60;;;11.60;71.80;;;;;;5021543;28;20030;-70
2023/12/10 06:14:47;;;;;;;0.50;0.50;;;11.60;72.00;;;;;;5019044;28;20037;-70
2023/12/10 06:17:12;;;;;;;0.40;0.40;;;11.60;72.00;;;;;;5032531;28;20083;-71
2023/12/10 06:19:38;;;;;;;0.55;0.55;;;11.60;72.10;;;;;;5032059;28;20079;-70
2023/12/10 06:22:04;;;;;;;0.50;0.50;;;11.60;72.10;;;;;;5032167;28;20105;-70
2023/12/10 06:24:29;;;;;;;0.50;0.50;;;11.60;72.00;;;;;;5024774;28;20040;-70
2023/12/10 06:26:55;;;;;;;0.43;0.43;;;11.60;72.00;;;;;;5031335;28;20026;-70
2023/12/10 06:29:22;;;;;;;0.50;0.50;;;11.60;72.00;;;;;;5033381;28;20034;-70
2023/12/10 06:31:47;;;;;;;0.50;0.50;;;11.60;72.10;;;;;;5004554;28;20030;-70
2023/12/10 06:34:13;;;;;;;0.80;0.80;;;11.60;72.10;;;;;;5013011;28;20088;-70
2023/12/10 06:36:38;;;;;;;0.50;0.50;;;11.60;72.10;;;;;;5027648;28;20021;-70
2023/12/10 06:39:04;;;;;;;0.50;0.50;;;11.60;71.90;;;;;;5027236;28;20469;-70
2023/12/10 06:41:30;;;;;;;2.00;1.33;;;11.60;72.10;;;;;;5015647;28;20030;-70
2023/12/10 06:43:56;;;;;;;0.50;0.50;;;11.60;72.10;;;;;;5025521;28;20025;-70
2023/12/10 06:46:21;;;;;;;0.90;0.90;;;11.60;72.10;;;;;;5023274;28;20033;-70
2023/12/10 06:48:47;;;;;;;1.20;1.13;;;11.60;72.00;;;;;;5020595;28;20112;-70
2023/12/10 06:51:12;;;;;;;0.50;0.50;;;11.50;72.00;;;;;;5032484;28;20041;-70
2023/12/10 06:53:39;;;;;;;0.50;0.50;;;11.50;72.00;;;;;;5021950;28;20101;-70
2023/12/10 06:56:06;;;;;;;0.80;0.80;;;11.60;72.00;;;;;;5026977;28;20386;-70
2023/12/10 06:58:35;;;;;;;0.40;0.40;;;11.60;72.10;;;;;;5032505;28;20080;-70
2023/12/10 07:01:02;;;;;;;0.40;0.40;;;11.60;72.30;;;;;;5031776;28;20024;-70
2023/12/10 07:03:27;;;;;;;0.40;0.40;;;11.60;72.10;;;;;;5031478;28;20132;-69
2023/12/10 07:05:53;;;;;;;0.50;0.50;;;11.60;72.10;;;;;;5013073;28;20124;-70
2023/12/10 07:08:18;;;;;;;0.40;0.40;;;11.60;72.20;;;;;;5030282;28;20512;-69
2023/12/10 07:10:44;;;;;;;0.50;0.50;;;11.50;72.10;;;;;;5007904;28;20030;-70
2023/12/10 07:13:10;;;;;;;0.70;0.70;;;11.50;72.10;;;;;;5025825;28;20561;-69
2023/12/10 07:15:35;;;;;;;0.50;0.50;;;11.50;72.20;;;;;;5030751;28;20065;-71
2023/12/10 07:18:01;;;;;;;1.90;1.45;;;11.50;72.10;;;;;;5027752;28;20068;-70
2023/12/10 07:20:27;;;;;;;0.40;0.40;;;11.50;72.10;;;;;;5023646;28;20026;-69
2023/12/10 07:22:52;;;;;;;7.13;2.15;;;11.50;72.10;;;;;;5031753;28;20029;-70
2023/12/10 07:25:18;;;;;;;0.80;0.80;;;11.50;72.10;;;;;;5014427;28;20034;-70
2023/12/10 07:27:44;;;;;;;0.63;0.63;;;11.50;72.20;;;;;;5016129;28;20028;-70
2023/12/10 07:30:10;;;;;;;0.40;0.40;;;11.60;72.10;;;;;;4994395;28;20034;-71
2023/12/10 07:32:36;;;;;;;0.50;0.50;;;11.50;72.30;;;;;;5014641;28;20488;-69
2023/12/10 07:35:01;;;;;;;0.50;0.50;;;11.60;72.20;;;;;;5021722;28;20085;-70
2023/12/10 07:37:27;;;;;;;0.40;0.40;;;11.60;72.20;;;;;;5022381;28;20018;-70
2023/12/10 07:39:52;;;;;;;0.40;0.40;;;11.60;72.30;;;;;;5025796;28;20037;-69
2023/12/10 07:42:18;;;;;;;0.47;0.47;;;11.60;72.20;;;;;;5041244;28;20064;-73
2023/12/10 07:44:44;;;;;;;12.00;1.17;;;11.60;72.20;;;;;;5053793;28;20044;-72
2023/12/10 07:47:09;;;;;;;2.70;2.28;;;11.60;72.20;;;;;;5052906;28;20029;-73
2023/12/10 07:49:35;;;;;;;0.47;0.47;;;11.60;72.20;;;;;;5028794;28;20449;-73
2023/12/10 07:52:01;;;;;;;1.08;0.98;;;11.60;72.30;;;;;;5047304;28;20029;-73
2023/12/10 07:54:26;;;;;;;0.50;0.50;;;11.60;72.20;;;;;;5033453;28;20009;-73
2023/12/10 07:56:52;;;;;;;1.42;1.15;;;11.70;72.20;;;;;;5039638;28;20085;-73
2023/12/10 07:59:19;;;;;;;0.40;0.40;;;11.70;72.40;;;;;;5045923;28;20037;-72
2023/12/10 08:01:44;;;;;;;0.50;0.50;;;11.70;72.50;;;;;;5024074;28;20537;-69
2023/12/10 08:04:10;;;;;;;1.30;1.20;;;11.80;72.50;;;;;;5033897;28;20112;-70
2023/12/10 08:06:35;;;;;;;0.50;0.50;;;11.80;72.40;;;;;;5027705;28;20060;-70
2023/12/10 08:09:04;;;;;;;0.47;0.47;;;11.80;72.40;;;;;;5022940;28;20038;-69
2023/12/10 08:11:30;;;;;;;11.07;1.42;;;11.80;72.40;;;;;;5028731;28;20032;-70
2023/12/10 08:13:56;;;;;;;0.88;0.88;;;11.80;72.20;;;;;;5029308;28;20033;-70
2023/12/10 08:16:21;;;;;;;0.50;0.50;;;11.80;72.20;;;;;;5030515;28;20033;-73
2023/12/10 08:18:47;;;;;;;0.50;0.50;;;11.90;72.30;;;;;;5034333;28;20053;-70
2023/12/10 08:21:15;;;;;;;1.95;1.30;;;11.90;72.30;;;;;;5029272;28;20476;-70
2023/12/10 08:23:40;;;;;;;0.85;0.80;;;11.90;72.20;;;;;;5031197;28;20104;-70
2023/12/10 08:26:06;;;;;;;0.85;0.85;;;11.90;72.20;;;;;;5030843;28;20037;-71
2023/12/10 08:28:34;;;;;;;0.40;0.40;;;11.90;72.30;;;;;;5029526;28;20443;-70
2023/12/10 08:30:59;;;;;;;0.50;0.50;;;11.90;72.30;;;;;;5029038;28;20030;-71
2023/12/10 08:33:25;;;;;;;0.50;0.50;;;11.90;72.30;;;;;;5028697;28;20427;-70
2023/12/10 08:35:50;;;;;;;0.40;0.40;;;11.90;72.40;;;;;;5030490;28;20029;-69
2023/12/10 08:38:16;;;;;;;0.50;0.50;;;12.00;72.40;;;;;;5029654;28;20396;-70
2023/12/10 08:40:42;;;;;;;0.50;0.50;;;11.90;72.20;;;;;;5030745;28;20049;-70
2023/12/10 08:43:07;;;;;;;0.50;0.50;;;11.90;72.20;;;;;;5027501;28;20187;-70
2023/12/10 08:45:33;;;;;;;0.40;0.40;;;12.00;72.30;;;;;;5022203;28;20441;-70
2023/12/10 08:47:58;;;;;;;0.60;0.60;;;12.00;72.40;;;;;;5029484;28;20024;-70
2023/12/10 08:50:24;;;;;;;0.70;0.70;;;12.00;72.40;;;;;;5029354;28;20045;-70
2023/12/10 08:52:49;;;;;;;0.50;0.50;;;12.00;72.60;;;;;;5031297;28;20045;-71
2023/12/10 08:55:15;;;;;;;1.10;0.88;;;12.10;72.50;;;;;;5030244;28;20033;-70
2023/12/10 08:57:40;;;;;;;0.40;0.40;;;12.20;72.40;;;;;;5030688;28;20084;-70
2023/12/10 09:00:06;;;;;;;11.60;1.15;;;12.20;72.30;;;;;;5030736;28;20057;-70
2023/12/10 09:02:32;;;;;;;0.50;0.50;;;12.20;72.20;;;;;;5030500;28;20084;-70
2023/12/10 09:04:57;;;;;;;0.50;0.50;;;12.20;72.30;;;;;;5029541;28;20037;-71
2023/12/10 09:07:23;;;;;;;0.80;0.80;;;12.20;72.40;;;;;;5028374;28;20040;-71
2023/12/10 09:09:49;;;;;;;0.40;0.40;;;12.20;72.40;;;;;;5030482;28;20365;-71
2023/12/10 09:12:14;;;;;;;0.50;0.50;;;12.20;72.20;;;;;;5030607;28;20053;-70
2023/12/10 09:14:40;;;;;;;0.60;0.60;;;12.20;72.40;;;;;;5029973;28;20481;-71
2023/12/10 09:17:05;;;;;;;0.55;0.55;;;12.20;72.40;;;;;;5018945;28;20029;-70
2023/12/10 09:19:32;;;;;;;0.43;0.43;;;12.20;72.50;;;;;;5012766;28;20026;-70
2023/12/10 09:21:58;;;;;;;0.40;0.40;;;12.20;72.40;;;;;;5030518;28;20034;-70
2023/12/10 09:24:23;;;;;;;0.55;0.55;;;12.20;72.40;;;;;;5032823;28;20033;-70
2023/12/10 09:26:50;;;;;;;0.50;0.50;;;12.20;72.40;;;;;;5033591;28;20021;-70
2023/12/10 09:29:15;;;;;;;0.40;0.40;;;12.30;72.30;;;;;;5033737;28;20133;-70
2023/12/10 09:31:41;;;;;;;0.45;0.45;;;12.30;72.40;;;;;;5031882;28;20546;-70
2023/12/10 09:34:07;;;;;;;0.40;0.40;;;12.30;72.50;;;;;;5031029;28;20037;-70
2023/12/10 09:36:33;;;;;;;0.50;0.50;;;12.30;72.50;;;;;;5031773;28;20017;-71
2023/12/10 09:38:58;;;;;;;0.47;0.47;;;12.30;72.60;;;;;;5032664;28;20409;-70
2023/12/10 09:41:24;;;;;;;0.40;0.40;;;12.30;72.50;;;;;;5032416;28;20029;-70
2023/12/10 09:43:49;;;;;;;0.63;0.63;;;12.40;72.60;;;;;;5031974;28;20072;-70
2023/12/10 09:46:15;;;;;;;0.50;0.50;;;12.40;72.50;;;;;;5022976;28;20033;-71
2023/12/10 09:48:41;;;;;;;1.20;1.20;;;12.40;72.30;;;;;;5029997;28;20030;-70
2023/12/10 09:51:07;;;;;;;0.50;0.50;;;12.40;72.20;;;;;;5035679;28;20018;-73
2023/12/10 09:53:33;;;;;;;0.50;0.50;;;12.40;72.30;;;;;;5049763;28;20041;-73
2023/12/10 09:55:59;;;;;;;0.40;0.40;;;12.40;72.30;;;;;;5027256;28;20049;-73
2023/12/10 09:58:24;;;;;;;10.43;1.35;;;12.40;72.30;;;;;;5012144;28;20069;-73
2023/12/10 10:00:50;;;;;;;0.50;0.50;;;12.40;72.30;;;;;;5034845;28;20006;-73
2023/12/10 10:03:16;;;;;;;0.50;0.50;;;12.40;72.20;;;;;;5018709;28;20068;-70
2023/12/10 10:05:41;;;;;;;0.57;0.57;;;12.40;72.20;;;;;;5013679;28;20057;-70
2023/12/10 10:08:07;;;;;;;2.17;1.98;;;12.40;72.10;;;;;;5044345;28;20033;-73
2023/12/10 10:10:32;;;;;;;0.40;0.40;;;12.40;72.00;;;;;;5050414;28;20490;-73
2023/12/10 10:12:59;;;;;;;0.40;0.40;;;12.40;72.10;;;;;;5057023;28;20041;-73
2023/12/10 10:15:29;;;;;;;0.40;0.40;;;12.40;72.10;;;;;;5054629;28;20132;-73
2023/12/10 10:17:56;;;;;;;0.60;0.60;;;12.40;72.30;;;;;;5053103;28;20025;-73
2023/12/10 10:20:26;;;;;;;0.70;0.70;;;12.40;72.30;;;;;;5035962;28;20080;-73
2023/12/10 10:22:54;;;;;;;1.85;0.82;;;12.50;72.30;;;;;;5052347;28;20052;-73
2023/12/10 10:25:20;;;;;;;0.50;0.50;;;12.50;72.30;;;;;;5030302;28;20037;-73
2023/12/10 10:27:47;;;;;;;0.40;0.40;;;12.50;72.30;;;;;;5042322;28;20127;-73
2023/12/10 10:30:12;;;;;;;1.30;1.27;;;12.50;72.30;;;;;;5045484;28;20032;-73
2023/12/10 10:32:39;;;;;;;0.40;0.40;;;12.60;72.10;;;;;;5046915;28;20037;-73
2023/12/10 10:35:06;;;;;;;0.43;0.43;;;12.60;72.20;;;;;;5045323;28;20087;-73
2023/12/10 10:37:32;;;;;;;0.50;0.50;;;12.60;72.00;;;;;;5058027;28;20021;-73
2023/12/10 10:39:57;;;;;;;1.08;1.02;;;12.50;72.00;;;;;;5030689;28;20021;-70
2023/12/10 10:42:23;;;;;;;0.50;0.50;;;12.50;72.10;;;;;;5030985;28;20032;-70
2023/12/10 10:44:48;;;;;;;0.60;0.60;;;12.50;72.00;;;;;;5027799;28;20528;-70
2023/12/10 10:47:18;;;;;;;0.65;0.65;;;12.50;71.90;;;;;;5011440;28;20032;-70
2023/12/10 10:49:52;;;;;;;0.75;0.75;;;12.40;72.10;;;;;;5030526;28;20032;-71
2023/12/10 10:52:24;;;;;;;7.00;1.30;;;12.40;72.20;;;;;;5035439;28;20120;-70
2023/12/10 10:54:53;;;;;;;0.50;0.50;;;12.40;72.10;;;;;;5029593;28;20235;-71
2023/12/10 10:57:30;;;;;;;0.50;0.50;;;12.40;72.20;;;;;;5030240;28;20080;-71
2023/12/10 10:59:56;;;;;;;0.52;0.52;;;12.40;72.30;;;;;;5032135;28;20025;-70
2023/12/10 11:02:22;;;;;;;0.40;0.40;;;12.40;72.10;;;;;;5031814;28;20040;-70
2023/12/10 11:04:50;;;;;;;0.50;0.50;;;12.40;72.40;;;;;;5032044;28;20022;-71
2023/12/10 11:07:18;;;;;;;0.50;0.50;;;12.40;72.60;;;;;;5067092;28;20021;-73
2023/12/10 11:10:01;;;;;;;0.40;0.40;;;12.40;72.30;;;;;;5014936;28;20029;-70
2023/12/10 11:12:42;;;;;;;0.50;0.50;;;12.40;72.20;;;;;;5049848;28;20384;-70
2023/12/10 11:15:13;;;;;;;0.40;0.40;;;12.40;72.20;;;;;;5051768;28;20035;-71
2023/12/10 11:17:54;;;;;;;0.40;0.40;;;12.30;72.40;;;;;;5015292;28;20393;-70
2023/12/10 11:20:33;;;;;;;0.40;0.40;;;12.30;72.50;;;;;;5014128;28;20378;-71
2023/12/10 11:23:02;;;;;;;0.50;0.50;;;12.40;72.50;;;;;;5030880;28;20036;-71
2023/12/10 11:25:34;;;;;;;0.40;0.40;;;12.40;72.50;;;;;;5032978;28;20411;-71
2023/12/10 11:28:07;;;;;;;0.50;0.50;;;12.40;72.30;;;;;;5038222;28;20559;-72
2023/12/10 11:30:33;;;;;;;0.80;0.80;;;12.40;72.50;;;;;;5019902;28;20040;-70
2023/12/10 11:32:59;;;;;;;11.07;1.45;;;12.40;72.60;;;;;;5017334;28;20030;-72
2023/12/10 11:35:24;;;;;;;0.50;0.50;;;12.50;72.60;;;;;;5019516;28;20110;-71
2023/12/10 11:37:50;;;;;;;0.50;0.50;;;12.50;72.40;;;;;;5028852;28;20488;-70
2023/12/10 11:40:16;;;;;;;0.52;0.52;;;12.50;72.60;;;;;;5025239;28;20041;-70
2023/12/10 11:42:42;;;;;;;0.50;0.50;;;12.60;72.80;;;;;;5029695;28;20499;-70
2023/12/10 11:45:08;;;;;;;0.60;0.60;;;12.70;72.90;;;;;;5011928;28;20029;-70
2023/12/10 11:47:33;;;;;;;0.85;0.85;;;12.80;72.80;;;;;;5027643;28;20049;-69
2023/12/10 11:49:59;;;;;;;0.55;0.55;;;12.80;72.60;;;;;;5028441;28;20061;-71
2023/12/10 11:52:25;;;;;;;0.80;0.80;;;12.90;72.60;;;;;;5031417;28;20374;-70
2023/12/10 11:54:51;;;;;;;0.45;0.45;;;13.00;72.70;;;;;;5031799;28;20100;-70
2023/12/10 11:57:16;;;;;;;0.40;0.40;;;13.10;72.60;;;;;;5012929;28;20107;-69
2023/12/10 11:59:48;;;;;;;0.40;0.40;;;13.20;72.60;;;;;;5031479;28;20464;-70
2023/12/10 12:02:15;;;;;;;1.58;1.45;;;13.30;72.20;;;;;;5029470;28;20064;-69
2023/12/10 12:04:41;;;;;;;0.40;0.40;;;13.30;72.10;;;;;;5013551;28;20123;-70
2023/12/10 12:07:07;;;;;;;0.60;0.60;;;13.40;72.20;;;;;;5030613;28;20112;-70
2023/12/10 12:09:32;;;;;;;0.50;0.50;;;13.40;72.00;;;;;;5011564;28;20033;-71
2023/12/10 12:11:58;;;;;;;0.40;0.40;;;13.40;71.90;;;;;;5011456;28;20036;-70
2023/12/10 12:14:24;;;;;;;0.90;0.88;;;13.50;71.80;;;;;;5022484;28;20033;-70
2023/12/10 12:16:49;;;;;;;0.57;0.57;;;13.50;71.50;;;;;;5031153;28;20029;-70
2023/12/10 12:19:27;;;;;;;0.50;0.50;;;13.50;71.70;;;;;;5030567;28;20041;-69
2023/12/10 12:21:55;;;;;;;0.40;0.40;;;13.40;71.60;;;;;;5031499;28;20057;-73
2023/12/10 12:24:20;;;;;;;0.60;0.60;;;13.40;71.40;;;;;;5033075;28;20085;-73
2023/12/10 12:26:49;;;;;;;0.60;0.60;;;13.40;71.30;;;;;;5024784;28;20034;-73
2023/12/10 12:29:15;;;;;;;0.40;0.40;;;13.30;71.50;;;;;;5012713;28;20504;-73
2023/12/10 12:31:41;;;;;;;1.35;1.25;;;13.30;71.40;;;;;;5017192;28;20025;-73
2023/12/10 12:34:06;;;;;;;0.50;0.50;;;13.30;71.50;;;;;;5032263;28;20038;-73
2023/12/10 12:36:31;;;;;;;1.05;0.80;;;13.30;71.30;;;;;;5028577;28;20412;-73
2023/12/10 12:38:57;;;;;;;1.50;1.40;;;13.30;71.40;;;;;;5029545;28;20156;-72
2023/12/10 12:41:22;;;;;;;1.00;1.00;;;13.30;71.20;;;;;;5031383;28;20033;-73